sensor_id;sensor_type;location;lat;lon;timestamp;pressure;altitude;pressure_sealevel;temperature;humidity
11190;BME280;5651;50.926;4.718;2022-07-23T00:01:34;101713.47;;;15.45;89.48
11190;BME280;5651;50.926;4.718;2022-07-23T00:03:59;101710.03;;;15.42;89.72
11190;BME280;5651;50.926;4.718;2022-07-23T00:06:25;101709.19;;;15.38;89.91
11190;BME280;5651;50.926;4.718;2022-07-23T00:08:51;101718.84;;;15.34;89.11
11190;BME280;5651;50.926;4.718;2022-07-23T00:11:17;101711.91;;;15.30;87.90
11190;BME280;5651;50.926;4.718;2022-07-23T00:13:43;101707.56;;;15.28;89.66
11190;BME280;5651;50.926;4.718;2022-07-23T00:16:09;101709.31;;;15.26;89.80
11190;BME280;5651;50.926;4.718;2022-07-23T00:18:35;101700.59;;;15.22;90.81
11190;BME280;5651;50.926;4.718;2022-07-23T00:21:01;101704.13;;;15.19;91.09
11190;BME280;5651;50.926;4.718;2022-07-23T00:23:26;101700.66;;;15.17;90.19
11190;BME280;5651;50.926;4.718;2022-07-23T00:25:54;101698.94;;;15.13;90.39
11190;BME280;5651;50.926;4.718;2022-07-23T00:28:20;101708.59;;;15.08;88.42
11190;BME280;5651;50.926;4.718;2022-07-23T00:30:46;101705.13;;;15.08;90.09
11190;BME280;5651;50.926;4.718;2022-07-23T00:33:12;101704.28;;;15.04;91.33
11190;BME280;5651;50.926;4.718;2022-07-23T00:35:39;101704.31;;;15.02;90.20
11190;BME280;5651;50.926;4.718;2022-07-23T00:38:07;101706.03;;;15.02;90.08
11190;BME280;5651;50.926;4.718;2022-07-23T00:40:33;101713.91;;;15.02;90.00
11190;BME280;5651;50.926;4.718;2022-07-23T00:42:59;101702.59;;;14.97;89.60
11190;BME280;5651;50.926;4.718;2022-07-23T00:45:25;101696.50;;;14.93;90.08
11190;BME280;5651;50.926;4.718;2022-07-23T00:47:51;101704.41;;;14.92;89.52
11190;BME280;5651;50.926;4.718;2022-07-23T00:50:17;101697.44;;;14.87;90.06
11190;BME280;5651;50.926;4.718;2022-07-23T00:52:44;101715.81;;;14.84;90.90
11190;BME280;5651;50.926;4.718;2022-07-23T00:55:10;101708.88;;;14.79;90.46
11190;BME280;5651;50.926;4.718;2022-07-23T00:57:38;101704.53;;;14.73;90.29
11190;BME280;5651;50.926;4.718;2022-07-23T01:00:06;101693.19;;;14.71;90.41
11190;BME280;5651;50.926;4.718;2022-07-23T01:02:32;101693.22;;;14.68;90.88
11190;BME280;5651;50.926;4.718;2022-07-23T01:04:58;101689.72;;;14.63;90.53
11190;BME280;5651;50.926;4.718;2022-07-23T01:07:23;101690.59;;;14.62;90.23
11190;BME280;5651;50.926;4.718;2022-07-23T01:09:50;101688.03;;;14.58;90.47
11190;BME280;5651;50.926;4.718;2022-07-23T01:12:16;101684.53;;;14.55;89.38
11190;BME280;5651;50.926;4.718;2022-07-23T01:14:42;101681.94;;;14.52;89.85
11190;BME280;5651;50.926;4.718;2022-07-23T01:17:08;101690.69;;;14.52;91.72
11190;BME280;5651;50.926;4.718;2022-07-23T01:19:34;101686.34;;;14.47;90.55
11190;BME280;5651;50.926;4.718;2022-07-23T01:22:02;101681.13;;;14.45;90.55
11190;BME280;5651;50.926;4.718;2022-07-23T01:24:28;101682.00;;;14.41;91.13
11190;BME280;5651;50.926;4.718;2022-07-23T01:26:54;101680.28;;;14.38;91.21
11190;BME280;5651;50.926;4.718;2022-07-23T01:29:20;101677.69;;;14.35;90.60
11190;BME280;5651;50.926;4.718;2022-07-23T01:31:47;101674.22;;;14.32;90.42
11190;BME280;5651;50.926;4.718;2022-07-23T01:34:13;101671.59;;;14.30;90.93
11190;BME280;5651;50.926;4.718;2022-07-23T01:36:39;101675.97;;;14.28;91.12
11190;BME280;5651;50.926;4.718;2022-07-23T01:39:07;101676.03;;;14.25;91.46
11190;BME280;5651;50.926;4.718;2022-07-23T01:41:33;101668.19;;;14.19;90.99
11190;BME280;5651;50.926;4.718;2022-07-23T01:43:59;101672.56;;;14.18;92.91
11190;BME280;5651;50.926;4.718;2022-07-23T01:46:25;101676.09;;;14.14;91.51
11190;BME280;5651;50.926;4.718;2022-07-23T01:48:51;101665.59;;;14.14;91.59
11190;BME280;5651;50.926;4.718;2022-07-23T01:51:17;101667.34;;;14.12;91.48
11190;BME280;5651;50.926;4.718;2022-07-23T01:53:43;101669.13;;;14.12;92.82
11190;BME280;5651;50.926;4.718;2022-07-23T01:56:09;101663.00;;;14.09;92.28
11190;BME280;5651;50.926;4.718;2022-07-23T01:58:35;101670.00;;;14.07;91.60
11190;BME280;5651;50.926;4.718;2022-07-23T02:01:01;101663.03;;;14.05;91.60
11190;BME280;5651;50.926;4.718;2022-07-23T02:03:26;101667.41;;;14.01;91.54
11190;BME280;5651;50.926;4.718;2022-07-23T02:05:52;101664.81;;;13.98;91.53
11190;BME280;5651;50.926;4.718;2022-07-23T02:08:18;101664.84;;;13.95;90.63
11190;BME280;5651;50.926;4.718;2022-07-23T02:10:44;101664.81;;;13.93;91.18
11190;BME280;5651;50.926;4.718;2022-07-23T02:13:10;101669.22;;;13.91;91.03
11190;BME280;5651;50.926;4.718;2022-07-23T02:15:35;101667.47;;;13.87;90.96
11190;BME280;5651;50.926;4.718;2022-07-23T02:18:02;101664.03;;;13.85;92.72
11190;BME280;5651;50.926;4.718;2022-07-23T02:20:27;101671.88;;;13.82;93.46
11190;BME280;5651;50.926;4.718;2022-07-23T02:22:53;101668.44;;;13.77;91.80
11190;BME280;5651;50.926;4.718;2022-07-23T02:25:19;101658.84;;;13.74;92.03
11190;BME280;5651;50.926;4.718;2022-07-23T02:27:44;101667.56;;;13.73;91.48
11190;BME280;5651;50.926;4.718;2022-07-23T02:30:11;101669.34;;;13.70;92.41
11190;BME280;5651;50.926;4.718;2022-07-23T02:32:38;101669.34;;;13.67;91.88
11190;BME280;5651;50.926;4.718;2022-07-23T02:35:05;101674.56;;;13.63;91.56
11190;BME280;5651;50.926;4.718;2022-07-23T02:37:31;101672.00;;;13.59;91.36
11190;BME280;5651;50.926;4.718;2022-07-23T02:39:57;101684.19;;;13.58;99.44
11190;BME280;5651;50.926;4.718;2022-07-23T02:42:23;101682.47;;;13.56;97.61
11190;BME280;5651;50.926;4.718;2022-07-23T02:44:50;101681.59;;;13.57;94.82
11190;BME280;5651;50.926;4.718;2022-07-23T02:47:16;101678.09;;;13.56;93.20
11190;BME280;5651;50.926;4.718;2022-07-23T02:49:42;101678.09;;;13.55;92.58
11190;BME280;5651;50.926;4.718;2022-07-23T02:52:08;101684.22;;;13.52;92.41
11190;BME280;5651;50.926;4.718;2022-07-23T02:54:36;101683.38;;;13.52;92.78
11190;BME280;5651;50.926;4.718;2022-07-23T02:57:02;101682.50;;;13.48;92.48
11190;BME280;5651;50.926;4.718;2022-07-23T02:59:28;101691.22;;;13.45;93.01
11190;BME280;5651;50.926;4.718;2022-07-23T03:01:54;101686.00;;;13.42;92.43
11190;BME280;5651;50.926;4.718;2022-07-23T03:04:20;101686.88;;;13.38;92.37
11190;BME280;5651;50.926;4.718;2022-07-23T03:06:46;101689.47;;;13.37;92.03
11190;BME280;5651;50.926;4.718;2022-07-23T03:09:11;101692.09;;;13.35;92.32
11190;BME280;5651;50.926;4.718;2022-07-23T03:11:37;101695.59;;;13.32;92.24
11190;BME280;5651;50.926;4.718;2022-07-23T03:14:03;101698.22;;;13.29;91.98
11190;BME280;5651;50.926;4.718;2022-07-23T03:16:28;101711.31;;;13.26;92.40
11190;BME280;5651;50.926;4.718;2022-07-23T03:18:54;101712.19;;;13.25;92.19
11190;BME280;5651;50.926;4.718;2022-07-23T03:21:20;101713.94;;;13.23;93.02
11190;BME280;5651;50.926;4.718;2022-07-23T03:23:46;101718.31;;;13.21;92.51
11190;BME280;5651;50.926;4.718;2022-07-23T03:26:11;101718.31;;;13.20;92.24
11190;BME280;5651;50.926;4.718;2022-07-23T03:28:37;101720.03;;;13.14;92.01
11190;BME280;5651;50.926;4.718;2022-07-23T03:31:03;101717.44;;;13.13;91.45
11190;BME280;5651;50.926;4.718;2022-07-23T03:33:28;101714.81;;;13.11;92.12
11190;BME280;5651;50.926;4.718;2022-07-23T03:35:54;101716.56;;;13.08;91.67
11190;BME280;5651;50.926;4.718;2022-07-23T03:38:20;101716.59;;;13.06;91.79
11190;BME280;5651;50.926;4.718;2022-07-23T03:40:45;101714.84;;;13.05;91.52
11190;BME280;5651;50.926;4.718;2022-07-23T03:43:11;101713.09;;;13.03;92.13
11190;BME280;5651;50.926;4.718;2022-07-23T03:45:37;101707.84;;;12.99;91.79
11190;BME280;5651;50.926;4.718;2022-07-23T03:48:03;101716.56;;;12.98;91.49
11190;BME280;5651;50.926;4.718;2022-07-23T03:50:29;101718.34;;;12.98;92.17
11190;BME280;5651;50.926;4.718;2022-07-23T03:52:54;101723.56;;;12.98;91.70
11190;BME280;5651;50.926;4.718;2022-07-23T03:55:20;101731.41;;;12.96;91.35
11190;BME280;5651;50.926;4.718;2022-07-23T03:57:46;101725.31;;;12.96;91.01
11190;BME280;5651;50.926;4.718;2022-07-23T04:00:12;101724.41;;;12.95;91.64
11190;BME280;5651;50.926;4.718;2022-07-23T04:02:39;101739.25;;;12.95;91.44
11190;BME280;5651;50.926;4.718;2022-07-23T04:05:05;101733.13;;;12.93;91.12
11190;BME280;5651;50.926;4.718;2022-07-23T04:07:31;101737.50;;;12.94;92.17
11190;BME280;5651;50.926;4.718;2022-07-23T04:09:57;101738.38;;;12.91;91.46
11190;BME280;5651;50.926;4.718;2022-07-23T04:12:23;101743.63;;;12.91;91.66
11190;BME280;5651;50.926;4.718;2022-07-23T04:14:49;101744.47;;;12.90;91.36
11190;BME280;5651;50.926;4.718;2022-07-23T04:17:15;101743.63;;;12.90;92.16
11190;BME280;5651;50.926;4.718;2022-07-23T04:19:41;101745.38;;;12.91;92.43
11190;BME280;5651;50.926;4.718;2022-07-23T04:22:10;101748.00;;;12.91;92.33
11190;BME280;5651;50.926;4.718;2022-07-23T04:24:36;101747.09;;;12.90;92.04
11190;BME280;5651;50.926;4.718;2022-07-23T04:27:02;101746.22;;;12.91;92.05
11190;BME280;5651;50.926;4.718;2022-07-23T04:29:28;101745.38;;;12.92;92.16
11190;BME280;5651;50.926;4.718;2022-07-23T04:31:54;101744.47;;;12.95;92.20
11190;BME280;5651;50.926;4.718;2022-07-23T04:34:19;101744.47;;;12.95;92.88
11190;BME280;5651;50.926;4.718;2022-07-23T04:36:46;101736.63;;;12.96;93.42
11190;BME280;5651;50.926;4.718;2022-07-23T04:39:12;101732.28;;;12.98;92.40
11190;BME280;5651;50.926;4.718;2022-07-23T04:41:37;101739.25;;;13.01;92.67
11190;BME280;5651;50.926;4.718;2022-07-23T04:44:05;101741.88;;;13.06;91.99
11190;BME280;5651;50.926;4.718;2022-07-23T04:46:30;101740.97;;;13.08;92.27
11190;BME280;5651;50.926;4.718;2022-07-23T04:48:56;101740.09;;;13.11;91.78
11190;BME280;5651;50.926;4.718;2022-07-23T04:51:22;101743.63;;;13.16;91.42
11190;BME280;5651;50.926;4.718;2022-07-23T04:53:48;101747.97;;;13.20;91.34
11190;BME280;5651;50.926;4.718;2022-07-23T04:56:13;101745.34;;;13.23;91.67
11190;BME280;5651;50.926;4.718;2022-07-23T04:58:39;101751.44;;;13.27;91.40
11190;BME280;5651;50.926;4.718;2022-07-23T05:01:05;101758.44;;;13.32;92.01
11190;BME280;5651;50.926;4.718;2022-07-23T05:03:32;101755.84;;;13.39;92.27
11190;BME280;5651;50.926;4.718;2022-07-23T05:05:58;101753.19;;;13.45;91.38
11190;BME280;5651;50.926;4.718;2022-07-23T05:08:24;101764.53;;;13.50;91.87
11190;BME280;5651;50.926;4.718;2022-07-23T05:10:49;101755.78;;;13.56;92.58
11190;BME280;5651;50.926;4.718;2022-07-23T05:13:15;101758.41;;;13.62;91.88
11190;BME280;5651;50.926;4.718;2022-07-23T05:15:42;101770.63;;;13.66;91.19
11190;BME280;5651;50.926;4.718;2022-07-23T05:18:08;101755.75;;;13.74;92.97
11190;BME280;5651;50.926;4.718;2022-07-23T05:20:34;101761.84;;;13.79;94.46
11190;BME280;5651;50.926;4.718;2022-07-23T05:23:00;101765.28;;;13.91;95.49
11190;BME280;5651;50.926;4.718;2022-07-23T05:25:26;101770.50;;;14.00;96.56
11190;BME280;5651;50.926;4.718;2022-07-23T05:27:51;101766.13;;;14.07;96.25
11190;BME280;5651;50.926;4.718;2022-07-23T05:30:17;101767.78;;;14.17;96.82
11190;BME280;5651;50.926;4.718;2022-07-23T05:32:43;101777.38;;;14.24;96.03
11190;BME280;5651;50.926;4.718;2022-07-23T05:35:09;101770.34;;;14.33;96.53
11190;BME280;5651;50.926;4.718;2022-07-23T05:37:34;101768.53;;;14.44;97.43
11190;BME280;5651;50.926;4.718;2022-07-23T05:40:02;101766.75;;;14.52;96.77
11190;BME280;5651;50.926;4.718;2022-07-23T05:42:28;101769.28;;;14.65;99.65
11190;BME280;5651;50.926;4.718;2022-07-23T05:44:54;101768.38;;;14.77;100.00
11190;BME280;5651;50.926;4.718;2022-07-23T05:47:20;101781.44;;;14.86;100.00
11190;BME280;5651;50.926;4.718;2022-07-23T05:49:46;101773.47;;;14.94;98.36
11190;BME280;5651;50.926;4.718;2022-07-23T05:52:11;101770.78;;;15.06;98.81
11190;BME280;5651;50.926;4.718;2022-07-23T05:54:37;101768.91;;;15.17;97.89
11190;BME280;5651;50.926;4.718;2022-07-23T05:57:03;101765.34;;;15.28;97.27
11190;BME280;5651;50.926;4.718;2022-07-23T05:59:30;101766.03;;;15.47;99.71
11190;BME280;5651;50.926;4.718;2022-07-23T06:01:55;101768.53;;;15.56;100.00
11190;BME280;5651;50.926;4.718;2022-07-23T06:04:21;101761.47;;;15.63;100.00
11190;BME280;5651;50.926;4.718;2022-07-23T06:06:47;101769.25;;;15.72;100.00
11190;BME280;5651;50.926;4.718;2022-07-23T06:09:13;101772.66;;;15.79;99.57
11190;BME280;5651;50.926;4.718;2022-07-23T06:11:40;101780.47;;;15.90;100.00
11190;BME280;5651;50.926;4.718;2022-07-23T06:14:06;101768.09;;;15.98;99.40
11190;BME280;5651;50.926;4.718;2022-07-23T06:16:32;101766.25;;;16.08;100.00
11190;BME280;5651;50.926;4.718;2022-07-23T06:18:57;101762.63;;;16.13;100.00
11190;BME280;5651;50.926;4.718;2022-07-23T06:21:23;101764.28;;;16.21;100.00
11190;BME280;5651;50.926;4.718;2022-07-23T06:23:49;101763.38;;;16.25;100.00
11190;BME280;5651;50.926;4.718;2022-07-23T06:26:15;101765.00;;;16.35;100.00
11190;BME280;5651;50.926;4.718;2022-07-23T06:28:40;101770.25;;;16.34;100.00
11190;BME280;5651;50.926;4.718;2022-07-23T06:31:07;101771.91;;;16.41;100.00
11190;BME280;5651;50.926;4.718;2022-07-23T06:33:33;101766.53;;;16.50;99.99
11190;BME280;5651;50.926;4.718;2022-07-23T06:35:59;101769.97;;;16.57;99.67
11190;BME280;5651;50.926;4.718;2022-07-23T06:38:24;101770.75;;;16.62;98.45
11190;BME280;5651;50.926;4.718;2022-07-23T06:40:50;101775.91;;;16.68;98.42
11190;BME280;5651;50.926;4.718;2022-07-23T06:43:16;101773.22;;;16.73;98.55
11190;BME280;5651;50.926;4.718;2022-07-23T06:45:42;101781.91;;;16.79;98.95
11190;BME280;5651;50.926;4.718;2022-07-23T06:48:08;101784.44;;;16.86;98.49
11190;BME280;5651;50.926;4.718;2022-07-23T06:50:33;101779.09;;;16.90;100.00
11190;BME280;5651;50.926;4.718;2022-07-23T06:53:00;101780.75;;;16.98;100.00
11190;BME280;5651;50.926;4.718;2022-07-23T06:55:26;101787.72;;;17.02;100.00
11190;BME280;5651;50.926;4.718;2022-07-23T06:57:51;101790.13;;;17.16;98.62
11190;BME280;5651;50.926;4.718;2022-07-23T07:00:17;101790.00;;;17.22;99.70
11190;BME280;5651;50.926;4.718;2022-07-23T07:02:43;101786.41;;;17.27;100.00
11190;BME280;5651;50.926;4.718;2022-07-23T07:05:09;101789.72;;;17.39;100.00
11190;BME280;5651;50.926;4.718;2022-07-23T07:07:35;101792.06;;;17.54;99.12
11190;BME280;5651;50.926;4.718;2022-07-23T07:10:03;101788.38;;;17.65;99.72
11190;BME280;5651;50.926;4.718;2022-07-23T07:12:29;101788.13;;;17.77;99.14
11190;BME280;5651;50.926;4.718;2022-07-23T07:14:54;101790.75;;;17.79;100.00
11190;BME280;5651;50.926;4.718;2022-07-23T07:17:20;101786.38;;;17.76;100.00
11190;BME280;5651;50.926;4.718;2022-07-23T07:19:46;101796.72;;;17.87;99.38
11190;BME280;5651;50.926;4.718;2022-07-23T07:22:11;101794.66;;;18.04;98.28
11190;BME280;5651;50.926;4.718;2022-07-23T07:24:37;101788.31;;;18.13;98.35
11190;BME280;5651;50.926;4.718;2022-07-23T07:27:03;101794.38;;;18.18;99.64
11190;BME280;5651;50.926;4.718;2022-07-23T07:29:29;101794.19;;;18.28;98.64
11190;BME280;5651;50.926;4.718;2022-07-23T07:31:54;101808.88;;;18.38;97.97
11190;BME280;5651;50.926;4.718;2022-07-23T07:34:20;101804.22;;;18.51;98.27
11190;BME280;5651;50.926;4.718;2022-07-23T07:36:46;101808.50;;;18.55;98.25
11190;BME280;5651;50.926;4.718;2022-07-23T07:39:11;101806.56;;;18.65;97.84
11190;BME280;5651;50.926;4.718;2022-07-23T07:41:37;101803.66;;;18.76;96.04
11190;BME280;5651;50.926;4.718;2022-07-23T07:44:03;101803.34;;;18.88;97.67
11190;BME280;5651;50.926;4.718;2022-07-23T07:46:29;101806.66;;;18.99;97.18
11190;BME280;5651;50.926;4.718;2022-07-23T07:48:55;101809.19;;;19.03;96.25
11190;BME280;5651;50.926;4.718;2022-07-23T07:51:21;101814.84;;;19.23;94.07
11190;BME280;5651;50.926;4.718;2022-07-23T07:53:47;101815.56;;;19.30;94.44
11190;BME280;5651;50.926;4.718;2022-07-23T07:56:13;101822.16;;;19.48;90.33
11190;BME280;5651;50.926;4.718;2022-07-23T07:58:39;101823.66;;;19.58;89.79
11190;BME280;5651;50.926;4.718;2022-07-23T08:01:05;101825.16;;;19.67;91.80
11190;BME280;5651;50.926;4.718;2022-07-23T08:03:30;101823.44;;;19.66;92.75
11190;BME280;5651;50.926;4.718;2022-07-23T08:05:56;101826.63;;;19.79;91.17
11190;BME280;5651;50.926;4.718;2022-07-23T08:08:22;101827.13;;;19.93;92.24
11190;BME280;5651;50.926;4.718;2022-07-23T08:10:48;101829.94;;;19.87;92.25
11190;BME280;5651;50.926;4.718;2022-07-23T08:13:15;101831.25;;;20.04;91.40
11190;BME280;5651;50.926;4.718;2022-07-23T08:15:41;101833.81;;;20.07;92.34
11190;BME280;5651;50.926;4.718;2022-07-23T08:18:09;101829.91;;;20.20;91.59
11190;BME280;5651;50.926;4.718;2022-07-23T08:20:35;101834.25;;;20.21;91.21
11190;BME280;5651;50.926;4.718;2022-07-23T08:23:06;101831.34;;;20.31;91.34
11190;BME280;5651;50.926;4.718;2022-07-23T08:25:40;101828.63;;;20.34;91.16
11190;BME280;5651;50.926;4.718;2022-07-23T08:28:11;101824.66;;;20.19;88.96
11190;BME280;5651;50.926;4.718;2022-07-23T08:30:38;101831.41;;;20.29;89.95
11190;BME280;5651;50.926;4.718;2022-07-23T08:33:12;101825.66;;;20.45;89.85
11190;BME280;5651;50.926;4.718;2022-07-23T08:35:41;101825.19;;;20.60;89.37
11190;BME280;5651;50.926;4.718;2022-07-23T08:38:08;101812.28;;;20.78;88.24
11190;BME280;5651;50.926;4.718;2022-07-23T08:40:40;101818.97;;;20.61;84.54
11190;BME280;5651;50.926;4.718;2022-07-23T08:43:08;101812.22;;;20.81;86.68
11190;BME280;5651;50.926;4.718;2022-07-23T08:45:40;101816.16;;;20.96;86.01
11190;BME280;5651;50.926;4.718;2022-07-23T08:48:21;101820.22;;;21.06;85.33
11190;BME280;5651;50.926;4.718;2022-07-23T08:50:52;101822.50;;;21.17;85.56
11190;BME280;5651;50.926;4.718;2022-07-23T08:53:21;101824.56;;;21.35;85.72
11190;BME280;5651;50.926;4.718;2022-07-23T08:55:51;101826.22;;;21.38;82.78
11190;BME280;5651;50.926;4.718;2022-07-23T08:58:18;101829.72;;;21.38;82.55
11190;BME280;5651;50.926;4.718;2022-07-23T09:00:44;101829.16;;;21.56;83.51
11190;BME280;5651;50.926;4.718;2022-07-23T09:03:23;101835.88;;;21.66;83.64
11190;BME280;5651;50.926;4.718;2022-07-23T09:05:50;101832.44;;;21.64;79.63
11190;BME280;5651;50.926;4.718;2022-07-23T09:08:23;101826.78;;;21.73;81.84
11190;BME280;5651;50.926;4.718;2022-07-23T09:10:54;101827.81;;;21.94;80.03
11190;BME280;5651;50.926;4.718;2022-07-23T09:15:50;101826.50;;;22.30;80.75
11190;BME280;5651;50.926;4.718;2022-07-23T09:18:17;101831.00;;;22.52;82.24
11190;BME280;5651;50.926;4.718;2022-07-23T09:20:45;101830.94;;;22.53;78.24
11190;BME280;5651;50.926;4.718;2022-07-23T09:23:11;101829.91;;;22.57;78.58
11190;BME280;5651;50.926;4.718;2022-07-23T09:25:37;101826.50;;;22.54;78.25
11190;BME280;5651;50.926;4.718;2022-07-23T09:28:02;101829.25;;;22.51;76.05
11190;BME280;5651;50.926;4.718;2022-07-23T09:30:31;101831.88;;;22.74;77.29
11190;BME280;5651;50.926;4.718;2022-07-23T09:33:11;101827.19;;;22.59;75.99
11190;BME280;5651;50.926;4.718;2022-07-23T09:35:53;101821.50;;;22.68;76.55
11190;BME280;5651;50.926;4.718;2022-07-23T09:38:22;101825.66;;;22.75;74.35
11190;BME280;5651;50.926;4.718;2022-07-23T09:41:06;101815.16;;;22.93;77.59
11190;BME280;5651;50.926;4.718;2022-07-23T09:43:31;101811.53;;;22.95;76.16
11190;BME280;5651;50.926;4.718;2022-07-23T09:46:17;101806.38;;;23.13;75.96
11190;BME280;5651;50.926;4.718;2022-07-23T09:48:43;101815.38;;;23.31;72.80
11190;BME280;5651;50.926;4.718;2022-07-23T09:51:08;101816.84;;;23.38;72.29
11190;BME280;5651;50.926;4.718;2022-07-23T09:53:34;101813.66;;;23.51;73.75
11190;BME280;5651;50.926;4.718;2022-07-23T09:56:00;101822.72;;;23.67;74.29
11190;BME280;5651;50.926;4.718;2022-07-23T09:58:26;101817.50;;;23.64;69.29
11190;BME280;5651;50.926;4.718;2022-07-23T10:00:53;101813.38;;;23.78;70.83
11190;BME280;5651;50.926;4.718;2022-07-23T10:03:19;101823.16;;;23.77;66.73
11190;BME280;5651;50.926;4.718;2022-07-23T10:05:46;101820.44;;;23.79;66.02
11190;BME280;5651;50.926;4.718;2022-07-23T10:08:17;101822.72;;;23.67;62.20
11190;BME280;5651;50.926;4.718;2022-07-23T10:10:46;101819.63;;;23.97;67.82
11190;BME280;5651;50.926;4.718;2022-07-23T10:13:14;101823.94;;;24.00;68.12
11190;BME280;5651;50.926;4.718;2022-07-23T10:15:46;101818.13;;;24.11;67.13
11190;BME280;5651;50.926;4.718;2022-07-23T10:18:12;101818.84;;;24.33;67.93
11190;BME280;5651;50.926;4.718;2022-07-23T10:20:38;101817.25;;;24.48;66.67
11190;BME280;5651;50.926;4.718;2022-07-23T10:25:46;101819.28;;;24.43;59.79
11190;BME280;5651;50.926;4.718;2022-07-23T10:31:12;101816.19;;;24.72;64.00
11190;BME280;5651;50.926;4.718;2022-07-23T10:37:14;101819.81;;;24.88;60.73
11190;BME280;5651;50.926;4.718;2022-07-23T10:39:48;101813.38;;;24.92;62.70
11190;BME280;5651;50.926;4.718;2022-07-23T10:42:16;101816.41;;;25.04;61.50
11190;BME280;5651;50.926;4.718;2022-07-23T10:44:48;101815.19;;;25.09;58.64
11190;BME280;5651;50.926;4.718;2022-07-23T10:47:34;101817.31;;;24.85;54.37
11190;BME280;5651;50.926;4.718;2022-07-23T10:58:01;101812.16;;;25.17;52.30
11190;BME280;5651;50.926;4.718;2022-07-23T11:00:30;101821.72;;;25.21;52.44
11190;BME280;5651;50.926;4.718;2022-07-23T11:02:58;101812.63;;;25.25;54.23
11190;BME280;5651;50.926;4.718;2022-07-23T11:05:38;101814.38;;;25.44;56.45
11190;BME280;5651;50.926;4.718;2022-07-23T11:10:52;101813.75;;;25.90;52.98
11190;BME280;5651;50.926;4.718;2022-07-23T11:24:08;101804.50;;;26.77;54.72
11190;BME280;5651;50.926;4.718;2022-07-23T11:26:42;101808.03;;;26.78;50.47
11190;BME280;5651;50.926;4.718;2022-07-23T11:31:55;101802.81;;;26.74;47.52
11190;BME280;5651;50.926;4.718;2022-07-23T11:34:29;101792.59;;;26.67;49.87
11190;BME280;5651;50.926;4.718;2022-07-23T11:36:57;101788.09;;;26.83;53.08
11190;BME280;5651;50.926;4.718;2022-07-23T11:39:29;101775.00;;;26.79;50.55
11190;BME280;5651;50.926;4.718;2022-07-23T11:41:55;101781.28;;;26.78;50.62
11190;BME280;5651;50.926;4.718;2022-07-23T11:44:36;101784.00;;;26.92;50.66
11190;BME280;5651;50.926;4.718;2022-07-23T11:47:09;101783.66;;;26.98;50.24
11190;BME280;5651;50.926;4.718;2022-07-23T11:49:35;101787.22;;;27.13;48.67
11190;BME280;5651;50.926;4.718;2022-07-23T11:52:11;101786.19;;;27.16;48.50
11190;BME280;5651;50.926;4.718;2022-07-23T11:57:23;101777.28;;;27.46;46.14
11190;BME280;5651;50.926;4.718;2022-07-23T11:59:52;101776.44;;;27.74;48.88
11190;BME280;5651;50.926;4.718;2022-07-23T12:02:20;101777.09;;;28.07;50.23
11190;BME280;5651;50.926;4.718;2022-07-23T12:04:48;101781.53;;;28.35;51.36
11190;BME280;5651;50.926;4.718;2022-07-23T12:07:37;101775.19;;;28.09;47.39
11190;BME280;5651;50.926;4.718;2022-07-23T12:10:30;101778.06;;;28.33;49.43
11190;BME280;5651;50.926;4.718;2022-07-23T12:13:10;101776.84;;;28.52;49.50
11190;BME280;5651;50.926;4.718;2022-07-23T12:15:40;101775.63;;;28.15;43.16
11190;BME280;5651;50.926;4.718;2022-07-23T12:18:10;101791.28;;;28.63;48.58
11190;BME280;5651;50.926;4.718;2022-07-23T12:20:41;101779.09;;;28.45;45.79
11190;BME280;5651;50.926;4.718;2022-07-23T12:23:10;101765.72;;;28.72;46.18
11190;BME280;5651;50.926;4.718;2022-07-23T12:25:39;101778.19;;;28.99;47.87
11190;BME280;5651;50.926;4.718;2022-07-23T12:28:17;101775.00;;;29.20;47.75
11190;BME280;5651;50.926;4.718;2022-07-23T12:30:51;101772.38;;;28.80;43.36
11190;BME280;5651;50.926;4.718;2022-07-23T12:33:28;101772.50;;;28.91;46.77
11190;BME280;5651;50.926;4.718;2022-07-23T12:35:56;101773.50;;;29.16;47.69
11190;BME280;5651;50.926;4.718;2022-07-23T12:38:24;101769.97;;;29.28;44.92
11190;BME280;5651;50.926;4.718;2022-07-23T12:40:55;101779.56;;;29.32;45.32
11190;BME280;5651;50.926;4.718;2022-07-23T12:43:23;101774.03;;;29.21;44.71
11190;BME280;5651;50.926;4.718;2022-07-23T12:51:01;101761.56;;;29.84;44.06
11190;BME280;5651;50.926;4.718;2022-07-23T12:53:33;101768.59;;;30.24;45.87
11190;BME280;5651;50.926;4.718;2022-07-23T12:56:12;101761.50;;;30.47;45.21
11190;BME280;5651;50.926;4.718;2022-07-23T12:58:41;101769.41;;;30.38;42.71
11190;BME280;5651;50.926;4.718;2022-07-23T13:01:07;101768.47;;;30.50;42.10
11190;BME280;5651;50.926;4.718;2022-07-23T13:03:36;101773.34;;;30.69;44.63
11190;BME280;5651;50.926;4.718;2022-07-23T13:06:04;101756.78;;;30.87;41.20
11190;BME280;5651;50.926;4.718;2022-07-23T13:08:31;101756.75;;;31.11;40.69
11190;BME280;5651;50.926;4.718;2022-07-23T13:10:58;101763.25;;;31.31;38.61
11190;BME280;5651;50.926;4.718;2022-07-23T13:13:26;101758.16;;;31.73;40.79
11190;BME280;5651;50.926;4.718;2022-07-23T13:15:52;101765.56;;;32.27;40.35
11190;BME280;5651;50.926;4.718;2022-07-23T13:18:19;101760.94;;;31.49;38.66
11190;BME280;5651;50.926;4.718;2022-07-23T13:20:46;101755.38;;;32.30;41.28
11190;BME280;5651;50.926;4.718;2022-07-23T13:23:12;101758.97;;;32.84;40.21
11190;BME280;5651;50.926;4.718;2022-07-23T13:25:38;101757.34;;;32.93;39.89
11190;BME280;5651;50.926;4.718;2022-07-23T13:28:04;101758.63;;;33.41;37.63
11190;BME280;5651;50.926;4.718;2022-07-23T13:30:30;101751.19;;;33.64;38.51
11190;BME280;5651;50.926;4.718;2022-07-23T13:32:56;101754.03;;;34.13;37.97
11190;BME280;5651;50.926;4.718;2022-07-23T13:35:22;101753.09;;;33.43;37.55
11190;BME280;5651;50.926;4.718;2022-07-23T13:37:48;101745.56;;;33.25;37.50
11190;BME280;5651;50.926;4.718;2022-07-23T13:40:14;101748.13;;;32.63;36.78
11190;BME280;5651;50.926;4.718;2022-07-23T13:42:40;101746.66;;;33.13;37.86
11190;BME280;5651;50.926;4.718;2022-07-23T13:45:06;101748.88;;;32.33;35.88